ENSD/SDN METAR and TAF weather

Enter ICAO airport designator
Station Type Date Time Source
ENSD METAR 2020/09/23 18:50 UTC NOAA

ENSD 231850Z 14003KT 100V170 9999 FEW030 SCT042 BKN200 08/04 Q1000 RMK WIND 1138FT 06006KT


Station Type Date Time Source
ENSD Decoded METAR 2020/09/23 18:50 UTC NOAA

Sandane / Anda, Norway (ENSD) 61-50N 006-07E 60M
Sep 23, 2020 - 02:50 PM EDT / 2020.09.23 1850 UTC
Wind: from the SE (140 degrees) at 3 MPH (3 KT) (direction variable):0
Visibility: greater than 7 mile(s):0
Sky conditions: mostly cloudy
Temperature: 46 F (8 C)
Dew Point: 39 F (4 C)
Relative Humidity: 75%
Pressure (altimeter): 29.53 in. Hg (1000 hPa)
ob: ENSD 231850Z 14003KT 100V170 9999 FEW030 SCT042 BKN200 08/04 Q1000 RMK WIND 1138FT 06006KT
cycle: 19

Station Type Date Time Source
ENSD TAF UTC NOAA

Error!

Example: see airport list